createdAt,value
2018-09-17T00:00:23.054Z,13.40
2018-09-17T00:02:50.303Z,13.40
2018-09-17T00:05:17.550Z,13.41
2018-09-17T00:07:44.795Z,13.41
2018-09-17T00:10:12.023Z,13.22
2018-09-17T00:12:39.296Z,13.23
2018-09-17T00:15:06.743Z,13.27
2018-09-17T00:17:34.003Z,13.28
2018-09-17T00:22:51.386Z,13.34
2018-09-17T00:25:18.659Z,13.34
2018-09-17T00:27:45.912Z,13.28
2018-09-17T00:30:13.122Z,13.30
2018-09-17T00:32:40.376Z,13.30
2018-09-17T00:35:07.772Z,13.29
2018-09-17T00:37:35.334Z,13.30
2018-09-17T00:40:02.595Z,13.31
2018-09-17T00:42:29.863Z,13.31
2018-09-17T00:44:57.108Z,13.27
2018-09-17T00:47:24.382Z,13.23
2018-09-17T00:49:51.746Z,13.14
2018-09-17T00:52:19.035Z,12.99
2018-09-17T00:54:46.293Z,12.96
2018-09-17T00:57:13.637Z,12.99
2018-09-17T00:59:40.856Z,13.06
2018-09-17T01:02:08.103Z,13.12
2018-09-17T01:04:35.359Z,13.18
2018-09-17T01:07:02.626Z,13.13
2018-09-17T01:09:35.410Z,13.03
2018-09-17T01:12:02.654Z,12.95
2018-09-17T01:14:29.950Z,12.87
2018-09-17T01:16:57.187Z,12.79
2018-09-17T01:19:24.478Z,12.74
2018-09-17T01:21:51.749Z,12.66
2018-09-17T01:24:19.197Z,12.59
2018-09-17T01:26:46.508Z,12.54
2018-09-17T01:29:13.759Z,12.46
2018-09-17T01:31:40.970Z,12.35
2018-09-17T01:34:08.243Z,12.25
2018-09-17T01:36:35.524Z,12.13
2018-09-17T01:39:02.990Z,12.00
2018-09-17T01:41:30.271Z,11.88
2018-09-17T01:43:57.540Z,11.77
2018-09-17T01:46:24.794Z,11.71
2018-09-17T01:48:52.086Z,11.66
2018-09-17T01:51:19.704Z,11.60
2018-09-17T01:53:47.016Z,11.56
2018-09-17T01:56:14.254Z,11.59
2018-09-17T01:58:41.543Z,11.64
2018-09-17T02:01:08.951Z,11.73
2018-09-17T02:03:36.187Z,11.93
2018-09-17T02:06:03.557Z,12.10
2018-09-17T02:08:30.829Z,12.17
2018-09-17T02:10:58.115Z,12.29
2018-09-17T02:13:25.725Z,12.38
2018-09-17T02:15:52.959Z,12.45
2018-09-17T02:18:20.250Z,12.47
2018-09-17T02:20:47.478Z,12.31
2018-09-17T02:23:15.019Z,12.19
2018-09-17T02:25:42.285Z,12.11
2018-09-17T02:28:10.069Z,12.02
2018-09-17T02:30:37.330Z,11.93
2018-09-17T02:33:04.597Z,11.89
2018-09-17T02:35:31.871Z,11.89
2018-09-17T02:37:59.097Z,11.91
2018-09-17T02:40:26.399Z,11.95
2018-09-17T02:42:53.684Z,12.00
2018-09-17T02:45:21.083Z,12.11
2018-09-17T02:47:48.333Z,12.18
2018-09-17T02:50:15.606Z,12.22
2018-09-17T02:52:42.863Z,12.24
2018-09-17T02:55:10.186Z,12.23
2018-09-17T02:57:37.848Z,12.22
2018-09-17T03:00:06.028Z,12.27
2018-09-17T03:02:33.232Z,12.34
2018-09-17T03:05:00.520Z,12.33
2018-09-17T03:07:27.987Z,12.29
2018-09-17T03:09:55.251Z,12.33
2018-09-17T03:12:22.456Z,12.41
2018-09-17T03:14:49.719Z,12.49
2018-09-17T03:17:16.950Z,12.49
2018-09-17T03:19:46.107Z,12.47
2018-09-17T03:22:15.086Z,12.41
2018-09-17T03:24:43.796Z,12.25
2018-09-17T03:27:11.055Z,12.10
2018-09-17T03:29:38.345Z,12.02
2018-09-17T03:32:05.648Z,11.92
2018-09-17T03:34:33.127Z,11.74
2018-09-17T03:37:00.572Z,11.66
2018-09-17T03:39:27.882Z,11.64
2018-09-17T03:41:55.149Z,11.60
2018-09-17T03:44:22.412Z,11.51
2018-09-17T03:46:49.694Z,11.40
2018-09-17T03:49:16.973Z,11.39
2018-09-17T03:51:44.210Z,11.34
2018-09-17T03:54:11.478Z,11.32
2018-09-17T03:56:38.840Z,11.30
2018-09-17T03:59:06.280Z,11.31
2018-09-17T04:01:33.549Z,11.39
2018-09-17T04:04:00.781Z,11.35
2018-09-17T04:06:28.063Z,11.31
2018-09-17T04:08:55.323Z,11.23
2018-09-17T04:11:22.604Z,11.27
2018-09-17T04:13:49.847Z,11.23
2018-09-17T04:16:17.375Z,11.22
2018-09-17T04:18:45.003Z,11.22
2018-09-17T04:21:12.271Z,11.19
2018-09-17T04:23:39.552Z,11.19
2018-09-17T04:26:09.228Z,11.15
2018-09-17T04:28:37.255Z,11.05
2018-09-17T04:31:04.843Z,10.99
2018-09-17T04:33:35.640Z,11.01
2018-09-17T04:36:03.058Z,11.05
2018-09-17T04:38:30.457Z,11.07
2018-09-17T04:40:57.829Z,11.14
2018-09-17T04:43:25.300Z,11.18
2018-09-17T04:45:52.691Z,11.18
2018-09-17T04:48:20.076Z,11.22
2018-09-17T04:50:47.512Z,11.32
2018-09-17T04:53:15.503Z,11.45
2018-09-17T04:55:43.470Z,11.51
2018-09-17T04:58:11.835Z,11.51
2018-09-17T05:00:39.255Z,11.42
2018-09-17T05:03:06.561Z,11.35
2018-09-17T05:05:34.228Z,11.35
2018-09-17T05:08:02.532Z,11.28
2018-09-17T05:10:29.879Z,11.22
2018-09-17T05:12:58.482Z,11.16
2018-09-17T05:15:25.897Z,11.09
2018-09-17T05:17:53.502Z,11.14
2018-09-17T05:20:21.100Z,11.15
2018-09-17T05:22:48.469Z,11.16
2018-09-17T05:25:16.985Z,11.04
2018-09-17T05:27:44.404Z,10.97
2018-09-17T05:30:11.762Z,10.98
2018-09-17T05:32:40.387Z,11.16
2018-09-17T05:35:09.012Z,11.32
2018-09-17T05:37:36.467Z,11.51
2018-09-17T05:40:04.388Z,11.66
2018-09-17T05:42:31.939Z,11.79
2018-09-17T05:44:59.500Z,11.92
2018-09-17T05:47:26.884Z,12.03
2018-09-17T05:49:54.240Z,12.21
2018-09-17T05:52:21.599Z,12.35
2018-09-17T05:54:48.963Z,12.50
2018-09-17T05:57:16.294Z,12.55
2018-09-17T05:59:44.260Z,12.58
2018-09-17T06:02:11.571Z,12.63
2018-09-17T06:04:38.960Z,12.74
2018-09-17T06:07:06.408Z,12.89
2018-09-17T06:09:33.870Z,13.07
2018-09-17T06:12:01.220Z,13.23
2018-09-17T06:14:28.570Z,13.37
2018-09-17T06:16:55.827Z,13.57
2018-09-17T06:19:23.129Z,13.79
2018-09-17T06:21:50.415Z,14.01
2018-09-17T06:24:17.803Z,14.22
2018-09-17T06:29:19.073Z,14.63
2018-09-17T06:31:46.409Z,14.82
2018-09-17T06:34:13.764Z,15.01
2018-09-17T06:36:41.084Z,15.19
2018-09-17T06:39:09.206Z,15.41
2018-09-17T06:41:36.613Z,15.60
2018-09-17T06:44:03.975Z,15.86
2018-09-17T06:46:31.377Z,16.23
2018-09-17T06:48:58.631Z,16.59
2018-09-17T06:51:26.163Z,16.96
2018-09-17T06:53:54.426Z,17.34
2018-09-17T06:56:21.764Z,17.68
2018-09-17T06:58:49.053Z,18.01
2018-09-17T07:01:17.624Z,18.36
2018-09-17T07:03:46.012Z,18.56
2018-09-17T07:06:14.092Z,18.52
2018-09-17T07:08:41.967Z,18.43
2018-09-17T07:11:10.928Z,18.66
2018-09-17T07:13:39.301Z,18.97
2018-09-17T07:16:07.423Z,19.25
2018-09-17T07:18:36.270Z,19.31
2018-09-17T07:21:04.403Z,19.50
2018-09-17T07:23:32.459Z,19.88
2018-09-17T07:25:59.811Z,20.32
2018-09-17T07:28:27.138Z,20.61
2018-09-17T07:30:55.015Z,20.99
2018-09-17T07:33:22.306Z,20.92
2018-09-17T07:35:49.618Z,21.36
2018-09-17T07:38:16.949Z,21.42
2018-09-17T07:40:44.318Z,21.58
2018-09-17T07:43:11.792Z,21.90
2018-09-17T07:45:39.104Z,22.31
2018-09-17T07:48:06.960Z,22.73
2018-09-17T07:50:34.322Z,23.01
2018-09-17T07:53:01.843Z,23.24
2018-09-17T07:55:29.327Z,23.15
2018-09-17T07:57:56.686Z,23.64
2018-09-17T08:00:24.213Z,24.15
2018-09-17T08:02:51.558Z,24.04
2018-09-17T08:05:18.875Z,24.11
2018-09-17T08:07:48.374Z,24.33
2018-09-17T08:10:22.251Z,24.49
2018-09-17T08:13:05.880Z,24.95
2018-09-17T08:15:59.920Z,24.96
2018-09-17T08:18:42.483Z,24.60
2018-09-17T08:21:16.743Z,24.95
2018-09-17T08:23:44.175Z,25.19
2018-09-17T08:26:11.517Z,25.31
2018-09-17T08:28:53.898Z,25.40
2018-09-17T08:31:21.218Z,25.50
2018-09-17T08:33:48.680Z,25.44
2018-09-17T08:36:15.987Z,25.16
2018-09-17T08:38:43.481Z,24.98
2018-09-17T08:41:10.836Z,24.85
2018-09-17T08:43:38.355Z,25.11
2018-09-17T08:46:06.648Z,25.47
2018-09-17T08:48:34.088Z,25.69
2018-09-17T08:51:01.446Z,25.57
2018-09-17T08:53:29.013Z,25.60
2018-09-17T08:55:59.281Z,25.99
2018-09-17T08:58:31.298Z,26.41
2018-09-17T09:01:02.269Z,26.82
2018-09-17T09:03:35.401Z,27.01
2018-09-17T09:06:08.574Z,26.89
2018-09-17T09:08:35.971Z,26.92
2018-09-17T09:11:09.156Z,27.17
2018-09-17T09:13:42.223Z,27.01
2018-09-17T09:16:09.575Z,27.31
2018-09-17T09:18:36.936Z,27.43
2018-09-17T09:21:04.498Z,27.48
2018-09-17T09:23:32.051Z,27.49
2018-09-17T09:26:00.972Z,27.46
2018-09-17T09:28:28.344Z,27.72
2018-09-17T09:30:55.789Z,27.41
2018-09-17T09:33:23.142Z,27.03
2018-09-17T09:35:51.383Z,26.60
2018-09-17T09:38:19.197Z,26.73
2018-09-17T09:40:46.543Z,26.67
2018-09-17T09:43:13.867Z,26.58
2018-09-17T09:45:41.242Z,26.69
2018-09-17T09:48:08.653Z,26.92
2018-09-17T09:50:36.039Z,26.97
2018-09-17T09:53:03.700Z,27.12
2018-09-17T09:55:31.570Z,27.35
2018-09-17T09:57:58.901Z,27.74
2018-09-17T10:00:31.967Z,28.04
2018-09-17T10:03:05.856Z,28.17
2018-09-17T10:05:33.317Z,28.36
2018-09-17T10:08:00.712Z,28.49
2018-09-17T10:10:33.783Z,28.50
2018-09-17T10:13:06.836Z,28.58
2018-09-17T10:15:39.684Z,28.24
2018-09-17T10:18:12.818Z,28.15
2018-09-17T10:20:40.415Z,27.80
2018-09-17T10:23:07.772Z,27.88
2018-09-17T10:25:35.215Z,27.97
2018-09-17T10:28:02.587Z,27.86
2018-09-17T10:30:30.079Z,27.96
2018-09-17T10:32:57.530Z,27.80
2018-09-17T10:35:24.880Z,27.75
2018-09-17T10:37:52.278Z,27.75
2018-09-17T10:40:19.709Z,28.07
2018-09-17T10:42:47.147Z,28.39
2018-09-17T10:45:16.122Z,28.32
2018-09-17T10:47:43.574Z,28.52
2018-09-17T10:50:11.142Z,28.97
2018-09-17T10:52:39.464Z,28.90
2018-09-17T10:55:06.814Z,29.07
2018-09-17T10:57:34.266Z,29.23
2018-09-17T11:00:01.705Z,29.44
2018-09-17T11:02:29.070Z,29.30
2018-09-17T11:04:56.461Z,29.03
2018-09-17T11:07:23.877Z,29.29
2018-09-17T11:09:51.398Z,29.15
2018-09-17T11:12:18.944Z,29.44
2018-09-17T11:14:46.348Z,29.70
2018-09-17T11:17:13.688Z,30.15
2018-09-17T11:19:41.069Z,30.09
2018-09-17T11:22:08.690Z,29.19
2018-09-17T11:24:36.076Z,29.44
2018-09-17T11:27:03.495Z,29.54
2018-09-17T11:29:30.880Z,29.46
2018-09-17T11:31:58.404Z,29.50
2018-09-17T11:34:26.524Z,29.96
2018-09-17T11:36:53.927Z,30.04
2018-09-17T11:39:21.323Z,29.92
2018-09-17T11:41:48.673Z,30.01
2018-09-17T11:44:16.542Z,29.91
2018-09-17T11:46:44.092Z,29.86
2018-09-17T11:49:12.139Z,29.73
2018-09-17T11:51:39.444Z,30.02
2018-09-17T11:54:06.959Z,30.41
2018-09-17T11:56:34.362Z,30.93
2018-09-17T11:59:01.688Z,30.45
2018-09-17T12:01:35.094Z,30.27
2018-09-17T12:04:08.191Z,30.42
2018-09-17T12:06:41.167Z,29.83
2018-09-17T12:09:09.346Z,28.82
2018-09-17T12:11:36.693Z,29.03
2018-09-17T12:14:04.358Z,29.15
2018-09-17T12:16:31.817Z,29.08
2018-09-17T12:18:59.154Z,29.43
2018-09-17T12:21:26.515Z,29.37
2018-09-17T12:23:54.322Z,29.52
2018-09-17T12:26:22.058Z,29.69
2018-09-17T12:28:49.644Z,29.99
2018-09-17T12:31:17.208Z,29.82
2018-09-17T12:33:45.629Z,29.62
2018-09-17T12:36:13.010Z,29.88
2018-09-17T12:38:40.453Z,29.87
2018-09-17T12:41:07.834Z,29.60
2018-09-17T12:43:35.323Z,29.49
2018-09-17T12:46:02.672Z,29.44
2018-09-17T12:48:30.003Z,29.32
2018-09-17T12:50:57.481Z,29.52
2018-09-17T12:53:24.832Z,29.59
2018-09-17T12:55:52.185Z,29.64
2018-09-17T12:58:19.814Z,29.19
2018-09-17T13:00:47.479Z,29.54
2018-09-17T13:03:15.008Z,29.19
2018-09-17T13:05:42.425Z,29.24
2018-09-17T13:08:09.885Z,29.13
2018-09-17T13:10:37.332Z,29.41
2018-09-17T13:13:04.760Z,29.23
2018-09-17T13:15:32.192Z,28.63
2018-09-17T13:18:00.423Z,28.34
2018-09-17T13:20:28.058Z,28.23
2018-09-17T13:22:55.668Z,28.45
2018-09-17T13:25:23.316Z,28.43
2018-09-17T13:27:50.921Z,28.20
2018-09-17T13:30:18.545Z,28.14
2018-09-17T13:32:46.917Z,28.41
2018-09-17T13:35:14.443Z,28.63
2018-09-17T13:37:41.988Z,28.36
2018-09-17T13:40:09.352Z,28.02
2018-09-17T13:42:36.819Z,27.92
2018-09-17T13:45:04.419Z,28.14
2018-09-17T13:47:31.863Z,28.41
2018-09-17T13:49:59.360Z,28.29
2018-09-17T13:52:27.458Z,28.10
2018-09-17T13:54:54.836Z,27.97
2018-09-17T13:57:22.930Z,27.64
2018-09-17T13:59:50.363Z,27.68
2018-09-17T14:02:17.902Z,27.78
2018-09-17T14:04:46.465Z,27.70
2018-09-17T14:07:14.818Z,27.60
2018-09-17T14:09:42.321Z,27.48
2018-09-17T14:12:09.837Z,27.58
2018-09-17T14:14:37.840Z,27.50
2018-09-17T14:17:05.257Z,27.34
2018-09-17T14:19:33.076Z,27.29
2018-09-17T14:22:00.849Z,27.27
2018-09-17T14:24:28.235Z,27.30
2018-09-17T14:26:55.748Z,27.23
2018-09-17T14:29:23.111Z,26.90
2018-09-17T14:31:56.831Z,26.93
2018-09-17T14:34:24.183Z,26.88
2018-09-17T14:36:51.700Z,26.87
2018-09-17T14:39:19.050Z,26.93
2018-09-17T14:41:46.448Z,26.91
2018-09-17T14:44:13.824Z,26.91
2018-09-17T14:46:41.287Z,26.85
2018-09-17T14:49:08.748Z,26.75
2018-09-17T14:51:36.178Z,26.72
2018-09-17T14:54:03.652Z,26.66
2018-09-17T14:56:30.958Z,26.65
2018-09-17T14:58:58.307Z,26.64
2018-09-17T15:01:25.746Z,26.66
2018-09-17T15:03:53.113Z,26.73
2018-09-17T15:06:20.704Z,26.74
2018-09-17T15:08:48.226Z,26.78
2018-09-17T15:11:15.478Z,26.73
2018-09-17T15:13:44.211Z,26.73
2018-09-17T15:16:11.579Z,26.61
2018-09-17T15:18:39.710Z,26.59
2018-09-17T15:21:07.187Z,26.59
2018-09-17T15:23:34.694Z,26.63
2018-09-17T15:26:03.002Z,26.64
2018-09-17T15:28:30.713Z,26.52
2018-09-17T15:30:58.198Z,26.34
2018-09-17T15:33:25.506Z,26.36
2018-09-17T15:35:52.839Z,26.37
2018-09-17T15:38:20.930Z,26.35
2018-09-17T15:40:48.307Z,26.40
2018-09-17T15:43:15.666Z,26.45
2018-09-17T15:45:43.072Z,26.42
2018-09-17T15:48:10.467Z,26.38
2018-09-17T15:50:37.813Z,26.17
2018-09-17T15:53:05.158Z,26.03
2018-09-17T15:55:32.482Z,25.84
2018-09-17T15:58:00.089Z,25.85
2018-09-17T16:00:27.325Z,25.61
2018-09-17T16:02:55.491Z,25.57
2018-09-17T16:05:23.303Z,25.53
2018-09-17T16:07:50.740Z,25.47
2018-09-17T16:10:18.092Z,25.44
2018-09-17T16:12:46.024Z,25.42
2018-09-17T16:15:13.386Z,25.33
2018-09-17T16:17:40.977Z,25.25
2018-09-17T16:20:08.319Z,25.22
2018-09-17T16:22:35.692Z,25.18
2018-09-17T16:25:03.246Z,25.13
2018-09-17T16:27:37.486Z,25.09
2018-09-17T16:30:06.351Z,25.03
2018-09-17T16:32:34.410Z,24.93
2018-09-17T16:35:02.496Z,24.77
2018-09-17T16:37:29.873Z,24.62
2018-09-17T16:39:57.320Z,24.45
2018-09-17T16:42:24.666Z,24.19
2018-09-17T16:44:52.168Z,23.99
2018-09-17T16:47:19.717Z,23.87
2018-09-17T16:49:47.067Z,23.73
2018-09-17T16:52:14.572Z,23.60
2018-09-17T16:54:42.414Z,23.47
2018-09-17T16:57:09.940Z,23.33
2018-09-17T16:59:40.196Z,23.18
2018-09-17T17:02:08.664Z,23.01
2018-09-17T17:04:36.615Z,22.78
2018-09-17T17:07:04.003Z,22.58
2018-09-17T17:09:32.364Z,22.40
2018-09-17T17:11:59.849Z,22.27
2018-09-17T17:14:27.288Z,22.14
2018-09-17T17:16:54.763Z,21.99
2018-09-17T17:19:22.436Z,21.88
2018-09-17T17:21:49.927Z,21.71
2018-09-17T17:24:17.475Z,21.65
2018-09-17T17:26:44.832Z,21.61
2018-09-17T17:29:13.010Z,21.55
2018-09-17T17:31:41.146Z,21.46
2018-09-17T17:34:08.750Z,21.47
2018-09-17T17:36:36.741Z,21.46
2018-09-17T17:39:06.921Z,21.39
2018-09-17T17:41:34.202Z,21.27
2018-09-17T17:44:01.525Z,21.15
2018-09-17T17:46:30.144Z,21.03
2018-09-17T17:48:57.393Z,20.73
2018-09-17T17:51:24.677Z,20.47
2018-09-17T17:53:52.063Z,20.20
2018-09-17T17:56:19.387Z,20.08
2018-09-17T17:58:46.767Z,20.00
2018-09-17T18:01:14.250Z,19.82
2018-09-17T18:03:42.083Z,19.70
2018-09-17T18:06:09.369Z,19.57
2018-09-17T18:08:38.146Z,19.41
2018-09-17T18:11:06.394Z,19.35
2018-09-17T18:13:33.774Z,19.29
2018-09-17T18:16:01.363Z,19.26
2018-09-17T18:18:28.864Z,19.19
2018-09-17T18:20:56.806Z,19.05
2018-09-17T18:23:25.305Z,19.01
2018-09-17T18:25:52.659Z,18.90
2018-09-17T18:28:20.065Z,18.79
2018-09-17T18:30:48.038Z,18.69
2018-09-17T18:33:15.699Z,18.64
2018-09-17T18:35:43.043Z,18.58
2018-09-17T18:38:10.460Z,18.53
2018-09-17T18:40:37.954Z,18.53
2018-09-17T18:43:05.389Z,18.45
2018-09-17T18:45:33.093Z,18.41
2018-09-17T18:48:00.375Z,18.34
2018-09-17T18:50:28.019Z,18.27
2018-09-17T18:52:55.929Z,18.20
2018-09-17T18:55:23.225Z,18.18
2018-09-17T18:57:50.614Z,18.18
2018-09-17T19:00:17.941Z,18.18
2018-09-17T19:02:46.590Z,18.13
2018-09-17T19:05:13.924Z,18.12
2018-09-17T19:07:41.362Z,18.10
2018-09-17T19:10:09.423Z,18.07
2018-09-17T19:12:36.851Z,18.05
2018-09-17T19:15:09.870Z,18.04
2018-09-17T19:17:40.418Z,18.04
2018-09-17T19:20:09.327Z,18.00
2018-09-17T19:22:42.470Z,17.99
2018-09-17T19:25:11.611Z,17.99
2018-09-17T19:27:44.949Z,17.97
2018-09-17T19:30:12.544Z,17.94
2018-09-17T19:32:41.237Z,17.88
2018-09-17T19:35:08.786Z,17.83
2018-09-17T19:37:41.867Z,17.77
2018-09-17T19:40:14.326Z,17.77
2018-09-17T19:42:44.582Z,17.73
2018-09-17T19:45:17.521Z,17.73
2018-09-17T19:47:45.567Z,17.68
2018-09-17T19:50:20.378Z,17.55
2018-09-17T19:52:47.768Z,17.52
2018-09-17T19:55:16.361Z,17.45
2018-09-17T19:57:49.158Z,17.41
2018-09-17T20:00:16.518Z,17.39
2018-09-17T20:02:45.091Z,17.30
2018-09-17T20:05:19.162Z,17.22
2018-09-17T20:07:46.703Z,17.18
2018-09-17T20:10:14.001Z,17.14
2018-09-17T20:12:41.287Z,17.14
2018-09-17T20:15:08.603Z,17.16
2018-09-17T20:17:41.691Z,17.12
2018-09-17T20:20:09.283Z,17.09
2018-09-17T20:22:36.524Z,17.07
2018-09-17T20:25:03.846Z,17.03
2018-09-17T20:27:31.080Z,17.00
2018-09-17T20:29:58.335Z,17.00
2018-09-17T20:32:25.638Z,16.95
2018-09-17T20:34:52.903Z,16.95
2018-09-17T20:37:20.244Z,16.96
2018-09-17T20:39:47.608Z,16.99
2018-09-17T20:42:14.888Z,16.97
2018-09-17T20:44:42.143Z,16.92
2018-09-17T20:47:09.467Z,16.87
2018-09-17T20:49:36.831Z,16.86
2018-09-17T20:52:04.895Z,16.84
2018-09-17T20:54:32.136Z,16.86
2018-09-17T20:56:59.403Z,16.84
2018-09-17T20:59:26.633Z,16.80
2018-09-17T21:01:53.987Z,16.73
2018-09-17T21:04:21.242Z,16.71
2018-09-17T21:06:48.576Z,16.70
2018-09-17T21:09:15.864Z,16.68
2018-09-17T21:11:43.191Z,16.62
2018-09-17T21:14:10.631Z,16.61
2018-09-17T21:16:38.368Z,16.54
2018-09-17T21:19:05.757Z,16.54
2018-09-17T21:21:33.080Z,16.47
2018-09-17T21:24:00.522Z,16.46
2018-09-17T21:26:27.873Z,16.46
2018-09-17T21:28:55.128Z,16.46
2018-09-17T21:31:22.477Z,16.47
2018-09-17T21:33:49.982Z,16.45
2018-09-17T21:36:17.240Z,16.48
2018-09-17T21:38:44.461Z,16.51
2018-09-17T21:41:11.727Z,16.47
2018-09-17T21:43:39.287Z,16.42
2018-09-17T21:46:07.040Z,16.38
2018-09-17T21:48:34.333Z,16.29
2018-09-17T21:51:01.623Z,16.28
2018-09-17T21:53:28.898Z,16.21
2018-09-17T21:55:56.209Z,16.13
2018-09-17T21:58:23.467Z,16.07
2018-09-17T22:00:56.549Z,16.00
2018-09-17T22:03:23.851Z,15.93
2018-09-17T22:05:51.102Z,15.90
2018-09-17T22:08:18.363Z,15.84
2018-09-17T22:10:45.615Z,15.87
2018-09-17T22:13:12.891Z,15.90
2018-09-17T22:15:40.279Z,15.94
2018-09-17T22:18:07.571Z,15.96
2018-09-17T22:20:34.815Z,15.92
2018-09-17T22:23:02.306Z,15.85
2018-09-17T22:25:29.579Z,15.82
2018-09-17T22:27:56.863Z,15.84
2018-09-17T22:30:24.148Z,15.85
2018-09-17T22:32:51.437Z,15.84
2018-09-17T22:35:18.746Z,15.78
2018-09-17T22:37:45.982Z,15.78
2018-09-17T22:40:13.226Z,15.67
2018-09-17T22:42:40.486Z,15.57
2018-09-17T22:45:07.872Z,15.46
2018-09-17T22:47:35.151Z,15.39
2018-09-17T22:50:03.070Z,15.36
2018-09-17T22:52:30.383Z,15.39
2018-09-17T22:54:58.833Z,15.39
2018-09-17T22:57:26.248Z,15.43
2018-09-17T22:59:53.539Z,15.45
2018-09-17T23:02:20.844Z,15.48
2018-09-17T23:04:48.103Z,15.46
2018-09-17T23:07:15.382Z,15.43
2018-09-17T23:09:42.642Z,15.41
2018-09-17T23:12:09.919Z,15.40
2018-09-17T23:14:37.155Z,15.37
2018-09-17T23:17:04.509Z,15.32
2018-09-17T23:19:31.767Z,15.23
2018-09-17T23:21:59.026Z,15.13
2018-09-17T23:24:26.271Z,15.10
2018-09-17T23:26:53.871Z,15.09
2018-09-17T23:29:21.122Z,15.07
2018-09-17T23:31:48.352Z,15.09
2018-09-17T23:34:15.612Z,15.08
2018-09-17T23:36:42.853Z,15.10
2018-09-17T23:39:11.278Z,15.06
2018-09-17T23:41:39.006Z,15.08
2018-09-17T23:44:06.288Z,15.10
2018-09-17T23:46:33.952Z,15.11
2018-09-17T23:49:01.215Z,15.14
2018-09-17T23:51:28.462Z,15.13
2018-09-17T23:53:55.748Z,15.12
2018-09-17T23:56:22.986Z,15.13
2018-09-17T23:58:50.254Z,15.13
